sensor_id;sensor_type;location;lat;lon;timestamp;P1;durP1;ratioP1;P2;durP2;ratioP2
22752;SDS011;11543;43.144;24.684;2023-09-08T00:02:00;5.85;;;3.40;;
22752;SDS011;11543;43.144;24.684;2023-09-08T00:04:25;5.00;;;3.20;;
22752;SDS011;11543;43.144;24.684;2023-09-08T00:06:51;6.70;;;3.58;;
22752;SDS011;11543;43.144;24.684;2023-09-08T00:09:16;5.88;;;3.20;;
22752;SDS011;11543;43.144;24.684;2023-09-08T00:11:42;8.40;;;3.13;;
22752;SDS011;11543;43.144;24.684;2023-09-08T00:14:07;8.23;;;3.40;;
22752;SDS011;11543;43.144;24.684;2023-09-08T00:16:33;6.43;;;3.45;;
22752;SDS011;11543;43.144;24.684;2023-09-08T00:18:58;9.80;;;3.67;;
22752;SDS011;11543;43.144;24.684;2023-09-08T00:21:24;5.72;;;3.20;;
22752;SDS011;11543;43.144;24.684;2023-09-08T00:23:51;5.07;;;3.30;;
22752;SDS011;11543;43.144;24.684;2023-09-08T00:26:17;6.00;;;3.22;;
22752;SDS011;11543;43.144;24.684;2023-09-08T00:28:42;8.60;;;3.13;;
22752;SDS011;11543;43.144;24.684;2023-09-08T00:31:08;4.55;;;3.00;;
22752;SDS011;11543;43.144;24.684;2023-09-08T00:33:33;7.00;;;3.05;;
22752;SDS011;11543;43.144;24.684;2023-09-08T00:35:59;7.90;;;3.38;;
22752;SDS011;11543;43.144;24.684;2023-09-08T00:38:24;5.80;;;3.70;;
22752;SDS011;11543;43.144;24.684;2023-09-08T00:40:50;5.15;;;3.35;;
22752;SDS011;11543;43.144;24.684;2023-09-08T00:43:18;8.32;;;3.35;;
22752;SDS011;11543;43.144;24.684;2023-09-08T00:45:43;6.22;;;3.55;;
22752;SDS011;11543;43.144;24.684;2023-09-08T00:48:11;7.70;;;3.78;;
22752;SDS011;11543;43.144;24.684;2023-09-08T00:50:37;8.90;;;3.97;;
22752;SDS011;11543;43.144;24.684;2023-09-08T00:53:04;8.65;;;4.10;;
22752;SDS011;11543;43.144;24.684;2023-09-08T00:55:31;6.53;;;3.60;;
22752;SDS011;11543;43.144;24.684;2023-09-08T00:57:57;5.75;;;3.83;;
22752;SDS011;11543;43.144;24.684;2023-09-08T01:00:26;7.53;;;4.30;;
22752;SDS011;11543;43.144;24.684;2023-09-08T01:02:52;6.35;;;3.50;;
22752;SDS011;11543;43.144;24.684;2023-09-08T01:05:18;5.50;;;3.53;;
22752;SDS011;11543;43.144;24.684;2023-09-08T01:07:44;6.80;;;3.38;;
22752;SDS011;11543;43.144;24.684;2023-09-08T01:10:12;6.53;;;3.70;;
22752;SDS011;11543;43.144;24.684;2023-09-08T01:12:38;9.35;;;3.78;;
22752;SDS011;11543;43.144;24.684;2023-09-08T01:15:05;6.35;;;3.42;;
22752;SDS011;11543;43.144;24.684;2023-09-08T01:17:31;5.47;;;3.80;;
22752;SDS011;11543;43.144;24.684;2023-09-08T01:19:57;5.10;;;3.80;;
22752;SDS011;11543;43.144;24.684;2023-09-08T01:23:03;5.00;;;3.35;;
22752;SDS011;11543;43.144;24.684;2023-09-08T01:25:37;5.55;;;3.78;;
22752;SDS011;11543;43.144;24.684;2023-09-08T01:28:07;5.30;;;3.53;;
22752;SDS011;11543;43.144;24.684;2023-09-08T01:30:34;4.95;;;3.67;;
22752;SDS011;11543;43.144;24.684;2023-09-08T01:33:01;6.15;;;3.65;;
22752;SDS011;11543;43.144;24.684;2023-09-08T01:35:27;5.30;;;3.60;;
22752;SDS011;11543;43.144;24.684;2023-09-08T01:37:52;4.82;;;3.40;;
22752;SDS011;11543;43.144;24.684;2023-09-08T01:40:18;5.30;;;3.67;;
22752;SDS011;11543;43.144;24.684;2023-09-08T01:42:44;5.55;;;3.55;;
22752;SDS011;11543;43.144;24.684;2023-09-08T01:45:10;7.18;;;3.80;;
22752;SDS011;11543;43.144;24.684;2023-09-08T01:47:36;6.72;;;3.38;;
22752;SDS011;11543;43.144;24.684;2023-09-08T01:50:02;6.72;;;3.35;;
22752;SDS011;11543;43.144;24.684;2023-09-08T01:52:27;9.40;;;3.70;;
22752;SDS011;11543;43.144;24.684;2023-09-08T01:54:53;7.85;;;3.58;;
22752;SDS011;11543;43.144;24.684;2023-09-08T01:57:18;6.75;;;3.60;;
22752;SDS011;11543;43.144;24.684;2023-09-08T01:59:44;9.77;;;3.83;;
22752;SDS011;11543;43.144;24.684;2023-09-08T02:02:10;5.35;;;3.35;;
22752;SDS011;11543;43.144;24.684;2023-09-08T02:04:36;8.50;;;3.42;;
22752;SDS011;11543;43.144;24.684;2023-09-08T02:07:02;7.18;;;3.90;;
22752;SDS011;11543;43.144;24.684;2023-09-08T02:09:32;6.20;;;3.63;;
22752;SDS011;11543;43.144;24.684;2023-09-08T02:11:59;6.57;;;3.72;;
22752;SDS011;11543;43.144;24.684;2023-09-08T02:14:25;6.63;;;3.65;;
22752;SDS011;11543;43.144;24.684;2023-09-08T02:16:51;6.00;;;3.50;;
22752;SDS011;11543;43.144;24.684;2023-09-08T02:19:16;7.95;;;3.63;;
22752;SDS011;11543;43.144;24.684;2023-09-08T02:21:42;8.73;;;4.55;;
22752;SDS011;11543;43.144;24.684;2023-09-08T02:24:07;6.93;;;3.53;;
22752;SDS011;11543;43.144;24.684;2023-09-08T02:26:33;7.03;;;3.85;;
22752;SDS011;11543;43.144;24.684;2023-09-08T02:28:59;6.68;;;3.53;;
22752;SDS011;11543;43.144;24.684;2023-09-08T02:31:26;7.38;;;3.97;;
22752;SDS011;11543;43.144;24.684;2023-09-08T02:33:52;8.25;;;3.53;;
22752;SDS011;11543;43.144;24.684;2023-09-08T02:36:17;6.93;;;3.75;;
22752;SDS011;11543;43.144;24.684;2023-09-08T02:38:43;7.47;;;3.70;;
22752;SDS011;11543;43.144;24.684;2023-09-08T02:41:08;6.03;;;3.92;;
22752;SDS011;11543;43.144;24.684;2023-09-08T02:43:34;7.30;;;4.38;;
22752;SDS011;11543;43.144;24.684;2023-09-08T02:45:59;6.40;;;3.78;;
22752;SDS011;11543;43.144;24.684;2023-09-08T02:48:25;6.65;;;3.67;;
22752;SDS011;11543;43.144;24.684;2023-09-08T02:50:50;6.28;;;3.85;;
22752;SDS011;11543;43.144;24.684;2023-09-08T02:53:17;6.00;;;3.65;;
22752;SDS011;11543;43.144;24.684;2023-09-08T02:55:42;5.18;;;3.75;;
22752;SDS011;11543;43.144;24.684;2023-09-08T02:58:08;6.03;;;3.58;;
22752;SDS011;11543;43.144;24.684;2023-09-08T03:00:33;5.22;;;3.80;;
22752;SDS011;11543;43.144;24.684;2023-09-08T03:02:59;6.45;;;3.97;;
22752;SDS011;11543;43.144;24.684;2023-09-08T03:05:24;6.35;;;3.83;;
22752;SDS011;11543;43.144;24.684;2023-09-08T03:07:50;7.35;;;4.05;;
22752;SDS011;11543;43.144;24.684;2023-09-08T03:10:15;5.80;;;3.80;;
22752;SDS011;11543;43.144;24.684;2023-09-08T03:12:41;6.20;;;3.78;;
22752;SDS011;11543;43.144;24.684;2023-09-08T03:15:06;9.48;;;4.00;;
22752;SDS011;11543;43.144;24.684;2023-09-08T03:17:32;6.07;;;3.67;;
22752;SDS011;11543;43.144;24.684;2023-09-08T03:19:58;7.30;;;3.92;;
22752;SDS011;11543;43.144;24.684;2023-09-08T03:22:23;6.10;;;3.95;;
22752;SDS011;11543;43.144;24.684;2023-09-08T03:24:49;7.18;;;3.97;;
22752;SDS011;11543;43.144;24.684;2023-09-08T03:27:15;6.70;;;3.88;;
22752;SDS011;11543;43.144;24.684;2023-09-08T03:29:40;8.30;;;3.95;;
22752;SDS011;11543;43.144;24.684;2023-09-08T03:32:06;7.45;;;3.70;;
22752;SDS011;11543;43.144;24.684;2023-09-08T03:34:31;6.28;;;4.18;;
22752;SDS011;11543;43.144;24.684;2023-09-08T03:36:57;7.90;;;3.75;;
22752;SDS011;11543;43.144;24.684;2023-09-08T03:39:22;6.22;;;3.72;;
22752;SDS011;11543;43.144;24.684;2023-09-08T03:41:48;7.38;;;3.63;;
22752;SDS011;11543;43.144;24.684;2023-09-08T03:44:13;5.15;;;3.70;;
22752;SDS011;11543;43.144;24.684;2023-09-08T03:46:39;7.85;;;4.18;;
22752;SDS011;11543;43.144;24.684;2023-09-08T03:49:04;6.07;;;3.90;;
22752;SDS011;11543;43.144;24.684;2023-09-08T03:51:30;8.48;;;4.13;;
22752;SDS011;11543;43.144;24.684;2023-09-08T03:53:55;8.88;;;3.95;;
22752;SDS011;11543;43.144;24.684;2023-09-08T03:56:20;6.20;;;3.92;;
22752;SDS011;11543;43.144;24.684;2023-09-08T03:58:47;6.13;;;3.53;;
22752;SDS011;11543;43.144;24.684;2023-09-08T04:01:12;6.28;;;3.78;;
22752;SDS011;11543;43.144;24.684;2023-09-08T04:03:38;5.90;;;4.10;;
22752;SDS011;11543;43.144;24.684;2023-09-08T04:06:03;6.72;;;3.70;;
22752;SDS011;11543;43.144;24.684;2023-09-08T04:08:29;8.05;;;3.92;;
22752;SDS011;11543;43.144;24.684;2023-09-08T04:10:54;6.95;;;3.85;;
22752;SDS011;11543;43.144;24.684;2023-09-08T04:13:20;6.03;;;4.07;;
22752;SDS011;11543;43.144;24.684;2023-09-08T04:15:45;5.72;;;4.00;;
22752;SDS011;11543;43.144;24.684;2023-09-08T04:18:11;7.55;;;4.30;;
22752;SDS011;11543;43.144;24.684;2023-09-08T04:20:36;9.02;;;4.10;;
22752;SDS011;11543;43.144;24.684;2023-09-08T04:23:02;9.60;;;3.90;;
22752;SDS011;11543;43.144;24.684;2023-09-08T04:25:27;5.72;;;3.60;;
22752;SDS011;11543;43.144;24.684;2023-09-08T04:27:53;6.68;;;4.65;;
22752;SDS011;11543;43.144;24.684;2023-09-08T04:30:18;8.52;;;3.90;;
22752;SDS011;11543;43.144;24.684;2023-09-08T04:32:44;5.53;;;3.78;;
22752;SDS011;11543;43.144;24.684;2023-09-08T04:35:09;7.28;;;3.67;;
22752;SDS011;11543;43.144;24.684;2023-09-08T04:37:35;6.80;;;4.00;;
22752;SDS011;11543;43.144;24.684;2023-09-08T04:40:02;6.80;;;3.90;;
22752;SDS011;11543;43.144;24.684;2023-09-08T04:42:28;9.50;;;4.72;;
22752;SDS011;11543;43.144;24.684;2023-09-08T04:44:54;7.32;;;3.92;;
22752;SDS011;11543;43.144;24.684;2023-09-08T04:47:19;6.75;;;4.57;;
22752;SDS011;11543;43.144;24.684;2023-09-08T04:49:45;10.82;;;4.60;;
22752;SDS011;11543;43.144;24.684;2023-09-08T04:52:11;9.40;;;4.25;;
22752;SDS011;11543;43.144;24.684;2023-09-08T04:54:36;6.80;;;4.25;;
22752;SDS011;11543;43.144;24.684;2023-09-08T04:57:02;7.93;;;4.80;;
22752;SDS011;11543;43.144;24.684;2023-09-08T04:59:28;6.85;;;4.47;;
22752;SDS011;11543;43.144;24.684;2023-09-08T05:01:53;8.88;;;4.30;;
22752;SDS011;11543;43.144;24.684;2023-09-08T05:04:19;8.68;;;4.32;;
22752;SDS011;11543;43.144;24.684;2023-09-08T05:06:44;9.85;;;4.57;;
22752;SDS011;11543;43.144;24.684;2023-09-08T05:09:10;8.65;;;4.60;;
22752;SDS011;11543;43.144;24.684;2023-09-08T05:11:35;7.03;;;4.47;;
22752;SDS011;11543;43.144;24.684;2023-09-08T05:14:01;8.65;;;4.53;;
22752;SDS011;11543;43.144;24.684;2023-09-08T05:16:27;6.90;;;4.63;;
22752;SDS011;11543;43.144;24.684;2023-09-08T05:19:05;6.90;;;4.40;;
22752;SDS011;11543;43.144;24.684;2023-09-08T05:21:31;7.85;;;4.43;;
22752;SDS011;11543;43.144;24.684;2023-09-08T05:23:57;8.23;;;4.55;;
22752;SDS011;11543;43.144;24.684;2023-09-08T05:26:23;7.38;;;4.88;;
22752;SDS011;11543;43.144;24.684;2023-09-08T05:28:48;12.55;;;7.47;;
22752;SDS011;11543;43.144;24.684;2023-09-08T05:31:14;14.38;;;9.00;;
22752;SDS011;11543;43.144;24.684;2023-09-08T05:33:39;18.98;;;10.45;;
22752;SDS011;11543;43.144;24.684;2023-09-08T05:36:05;17.50;;;10.15;;
22752;SDS011;11543;43.144;24.684;2023-09-08T05:38:30;17.42;;;9.75;;
22752;SDS011;11543;43.144;24.684;2023-09-08T05:40:56;14.85;;;9.43;;
22752;SDS011;11543;43.144;24.684;2023-09-08T05:43:25;13.85;;;9.40;;
22752;SDS011;11543;43.144;24.684;2023-09-08T05:45:51;15.00;;;8.60;;
22752;SDS011;11543;43.144;24.684;2023-09-08T05:48:16;10.68;;;7.55;;
22752;SDS011;11543;43.144;24.684;2023-09-08T05:50:42;8.80;;;6.40;;
22752;SDS011;11543;43.144;24.684;2023-09-08T05:53:10;12.88;;;7.03;;
22752;SDS011;11543;43.144;24.684;2023-09-08T05:55:35;13.60;;;7.45;;
22752;SDS011;11543;43.144;24.684;2023-09-08T05:58:01;10.75;;;7.18;;
22752;SDS011;11543;43.144;24.684;2023-09-08T06:00:26;13.73;;;8.32;;
22752;SDS011;11543;43.144;24.684;2023-09-08T06:02:52;11.35;;;7.65;;
22752;SDS011;11543;43.144;24.684;2023-09-08T06:05:17;12.63;;;7.55;;
22752;SDS011;11543;43.144;24.684;2023-09-08T06:07:43;13.07;;;7.10;;
22752;SDS011;11543;43.144;24.684;2023-09-08T06:10:09;13.35;;;5.68;;
22752;SDS011;11543;43.144;24.684;2023-09-08T06:12:34;10.25;;;6.22;;
22752;SDS011;11543;43.144;24.684;2023-09-08T06:15:01;13.68;;;6.00;;
22752;SDS011;11543;43.144;24.684;2023-09-08T06:17:28;10.65;;;5.40;;
22752;SDS011;11543;43.144;24.684;2023-09-08T06:19:53;13.40;;;5.20;;
22752;SDS011;11543;43.144;24.684;2023-09-08T06:22:19;10.82;;;4.78;;
22752;SDS011;11543;43.144;24.684;2023-09-08T06:24:44;9.60;;;4.85;;
22752;SDS011;11543;43.144;24.684;2023-09-08T06:27:10;9.93;;;5.00;;
22752;SDS011;11543;43.144;24.684;2023-09-08T06:29:36;9.18;;;4.50;;
22752;SDS011;11543;43.144;24.684;2023-09-08T06:32:02;11.68;;;4.22;;
22752;SDS011;11543;43.144;24.684;2023-09-08T06:34:27;8.43;;;4.75;;
22752;SDS011;11543;43.144;24.684;2023-09-08T06:36:53;9.02;;;4.22;;
22752;SDS011;11543;43.144;24.684;2023-09-08T06:39:18;8.80;;;4.13;;
22752;SDS011;11543;43.144;24.684;2023-09-08T06:41:44;8.48;;;3.88;;
22752;SDS011;11543;43.144;24.684;2023-09-08T06:44:09;5.30;;;4.00;;
22752;SDS011;11543;43.144;24.684;2023-09-08T06:46:35;7.53;;;3.80;;
22752;SDS011;11543;43.144;24.684;2023-09-08T06:49:00;6.35;;;3.83;;
22752;SDS011;11543;43.144;24.684;2023-09-08T06:51:26;6.07;;;3.90;;
22752;SDS011;11543;43.144;24.684;2023-09-08T06:53:57;6.07;;;4.07;;
22752;SDS011;11543;43.144;24.684;2023-09-08T06:56:22;7.78;;;3.70;;
22752;SDS011;11543;43.144;24.684;2023-09-08T06:58:48;7.70;;;3.92;;
22752;SDS011;11543;43.144;24.684;2023-09-08T07:01:14;5.95;;;4.00;;
22752;SDS011;11543;43.144;24.684;2023-09-08T07:03:39;8.50;;;3.85;;
22752;SDS011;11543;43.144;24.684;2023-09-08T07:06:05;8.07;;;3.90;;
22752;SDS011;11543;43.144;24.684;2023-09-08T07:08:30;6.75;;;3.83;;
22752;SDS011;11543;43.144;24.684;2023-09-08T07:10:56;5.68;;;3.92;;
22752;SDS011;11543;43.144;24.684;2023-09-08T07:13:21;6.57;;;3.47;;
22752;SDS011;11543;43.144;24.684;2023-09-08T07:15:47;8.18;;;3.47;;
22752;SDS011;11543;43.144;24.684;2023-09-08T07:18:12;6.88;;;3.78;;
22752;SDS011;11543;43.144;24.684;2023-09-08T07:20:38;7.90;;;3.90;;
22752;SDS011;11543;43.144;24.684;2023-09-08T07:23:03;8.25;;;4.05;;
22752;SDS011;11543;43.144;24.684;2023-09-08T07:25:29;9.35;;;3.50;;
22752;SDS011;11543;43.144;24.684;2023-09-08T07:27:54;9.35;;;4.20;;
22752;SDS011;11543;43.144;24.684;2023-09-08T07:30:20;9.23;;;4.15;;
22752;SDS011;11543;43.144;24.684;2023-09-08T07:32:46;6.88;;;4.05;;
22752;SDS011;11543;43.144;24.684;2023-09-08T07:35:11;9.23;;;4.70;;
22752;SDS011;11543;43.144;24.684;2023-09-08T07:37:41;9.52;;;3.90;;
22752;SDS011;11543;43.144;24.684;2023-09-08T07:40:09;11.70;;;4.63;;
22752;SDS011;11543;43.144;24.684;2023-09-08T07:42:35;8.68;;;4.10;;
22752;SDS011;11543;43.144;24.684;2023-09-08T07:45:01;12.38;;;4.25;;
22752;SDS011;11543;43.144;24.684;2023-09-08T07:47:26;9.27;;;4.75;;
22752;SDS011;11543;43.144;24.684;2023-09-08T07:49:52;9.85;;;4.30;;
22752;SDS011;11543;43.144;24.684;2023-09-08T07:52:37;8.13;;;4.28;;
22752;SDS011;11543;43.144;24.684;2023-09-08T07:55:02;11.00;;;4.10;;
22752;SDS011;11543;43.144;24.684;2023-09-08T07:57:28;10.30;;;4.50;;
22752;SDS011;11543;43.144;24.684;2023-09-08T07:59:54;9.30;;;4.32;;
22752;SDS011;11543;43.144;24.684;2023-09-08T08:02:19;7.63;;;4.30;;
22752;SDS011;11543;43.144;24.684;2023-09-08T08:04:44;9.32;;;4.45;;
22752;SDS011;11543;43.144;24.684;2023-09-08T08:07:10;8.90;;;4.20;;
22752;SDS011;11543;43.144;24.684;2023-09-08T08:09:35;8.90;;;3.90;;
22752;SDS011;11543;43.144;24.684;2023-09-08T08:12:01;6.97;;;3.85;;
22752;SDS011;11543;43.144;24.684;2023-09-08T08:14:26;8.27;;;3.83;;
22752;SDS011;11543;43.144;24.684;2023-09-08T08:16:52;11.85;;;3.95;;
22752;SDS011;11543;43.144;24.684;2023-09-08T08:19:17;6.80;;;3.65;;
22752;SDS011;11543;43.144;24.684;2023-09-08T08:21:43;7.55;;;3.25;;
22752;SDS011;11543;43.144;24.684;2023-09-08T08:24:08;9.50;;;3.63;;
22752;SDS011;11543;43.144;24.684;2023-09-08T08:26:34;9.38;;;3.35;;
22752;SDS011;11543;43.144;24.684;2023-09-08T08:28:59;7.53;;;3.28;;
22752;SDS011;11543;43.144;24.684;2023-09-08T08:31:25;7.40;;;3.35;;
22752;SDS011;11543;43.144;24.684;2023-09-08T08:33:50;5.32;;;3.50;;
22752;SDS011;11543;43.144;24.684;2023-09-08T08:36:17;8.30;;;3.55;;
22752;SDS011;11543;43.144;24.684;2023-09-08T08:38:42;8.80;;;3.58;;
22752;SDS011;11543;43.144;24.684;2023-09-08T08:41:08;9.20;;;3.70;;
22752;SDS011;11543;43.144;24.684;2023-09-08T08:43:34;8.40;;;3.33;;
22752;SDS011;11543;43.144;24.684;2023-09-08T08:46:02;6.43;;;3.25;;
22752;SDS011;11543;43.144;24.684;2023-09-08T08:48:29;11.38;;;3.50;;
22752;SDS011;11543;43.144;24.684;2023-09-08T08:50:57;7.28;;;3.70;;
22752;SDS011;11543;43.144;24.684;2023-09-08T08:53:23;9.32;;;3.35;;
22752;SDS011;11543;43.144;24.684;2023-09-08T08:55:50;5.90;;;3.30;;
22752;SDS011;11543;43.144;24.684;2023-09-08T08:58:19;8.30;;;3.50;;
22752;SDS011;11543;43.144;24.684;2023-09-08T09:00:50;5.03;;;3.53;;
22752;SDS011;11543;43.144;24.684;2023-09-08T09:03:18;6.53;;;3.10;;
22752;SDS011;11543;43.144;24.684;2023-09-08T09:05:45;6.38;;;3.10;;
22752;SDS011;11543;43.144;24.684;2023-09-08T09:08:11;12.20;;;3.10;;
22752;SDS011;11543;43.144;24.684;2023-09-08T09:10:38;11.52;;;3.60;;
22752;SDS011;11543;43.144;24.684;2023-09-08T09:13:03;6.20;;;2.90;;
22752;SDS011;11543;43.144;24.684;2023-09-08T09:15:30;8.27;;;3.17;;
22752;SDS011;11543;43.144;24.684;2023-09-08T09:18:07;5.65;;;2.70;;
22752;SDS011;11543;43.144;24.684;2023-09-08T09:20:33;6.65;;;3.30;;
22752;SDS011;11543;43.144;24.684;2023-09-08T09:22:59;7.55;;;3.10;;
22752;SDS011;11543;43.144;24.684;2023-09-08T09:25:26;11.73;;;3.15;;
22752;SDS011;11543;43.144;24.684;2023-09-08T09:27:54;8.68;;;2.90;;
22752;SDS011;11543;43.144;24.684;2023-09-08T09:30:21;5.72;;;3.10;;
22752;SDS011;11543;43.144;24.684;2023-09-08T09:32:47;6.40;;;2.80;;
22752;SDS011;11543;43.144;24.684;2023-09-08T09:35:16;4.85;;;2.65;;
22752;SDS011;11543;43.144;24.684;2023-09-08T09:37:43;5.65;;;2.50;;
22752;SDS011;11543;43.144;24.684;2023-09-08T09:40:09;5.43;;;2.78;;
22752;SDS011;11543;43.144;24.684;2023-09-08T09:42:39;5.90;;;2.92;;
22752;SDS011;11543;43.144;24.684;2023-09-08T09:45:06;9.27;;;2.70;;
22752;SDS011;11543;43.144;24.684;2023-09-08T09:47:32;7.38;;;2.83;;
22752;SDS011;11543;43.144;24.684;2023-09-08T09:49:57;6.90;;;2.85;;
22752;SDS011;11543;43.144;24.684;2023-09-08T09:52:24;5.25;;;3.10;;
22752;SDS011;11543;43.144;24.684;2023-09-08T09:54:54;5.53;;;2.70;;
22752;SDS011;11543;43.144;24.684;2023-09-08T09:57:22;5.63;;;2.60;;
22752;SDS011;11543;43.144;24.684;2023-09-08T09:59:47;7.65;;;2.78;;
22752;SDS011;11543;43.144;24.684;2023-09-08T10:02:16;11.80;;;2.92;;
22752;SDS011;11543;43.144;24.684;2023-09-08T10:04:45;9.20;;;2.75;;
22752;SDS011;11543;43.144;24.684;2023-09-08T10:07:13;6.82;;;2.88;;
22752;SDS011;11543;43.144;24.684;2023-09-08T10:09:40;8.80;;;3.00;;
22752;SDS011;11543;43.144;24.684;2023-09-08T10:12:06;5.72;;;2.90;;
22752;SDS011;11543;43.144;24.684;2023-09-08T10:14:37;6.93;;;3.05;;
22752;SDS011;11543;43.144;24.684;2023-09-08T10:17:06;6.25;;;3.03;;
22752;SDS011;11543;43.144;24.684;2023-09-08T10:19:36;8.57;;;2.88;;
22752;SDS011;11543;43.144;24.684;2023-09-08T10:22:08;6.43;;;2.97;;
22752;SDS011;11543;43.144;24.684;2023-09-08T10:24:38;8.97;;;2.80;;
22752;SDS011;11543;43.144;24.684;2023-09-08T10:27:09;6.70;;;2.80;;
22752;SDS011;11543;43.144;24.684;2023-09-08T10:29:36;6.07;;;2.97;;
22752;SDS011;11543;43.144;24.684;2023-09-08T10:32:03;5.93;;;2.80;;
22752;SDS011;11543;43.144;24.684;2023-09-08T10:34:29;5.95;;;2.60;;
22752;SDS011;11543;43.144;24.684;2023-09-08T10:36:56;9.18;;;2.50;;
22752;SDS011;11543;43.144;24.684;2023-09-08T10:39:29;6.78;;;2.95;;
22752;SDS011;11543;43.144;24.684;2023-09-08T10:44:43;5.45;;;2.97;;
22752;SDS011;11543;43.144;24.684;2023-09-08T10:47:26;7.78;;;2.58;;
22752;SDS011;11543;43.144;24.684;2023-09-08T10:50:01;5.22;;;2.80;;
22752;SDS011;11543;43.144;24.684;2023-09-08T10:52:27;8.75;;;3.00;;
22752;SDS011;11543;43.144;24.684;2023-09-08T10:54:58;5.35;;;2.90;;
22752;SDS011;11543;43.144;24.684;2023-09-08T10:57:24;5.03;;;2.50;;
22752;SDS011;11543;43.144;24.684;2023-09-08T10:59:57;4.75;;;2.70;;
22752;SDS011;11543;43.144;24.684;2023-09-08T11:02:36;7.57;;;2.95;;
22752;SDS011;11543;43.144;24.684;2023-09-08T11:05:10;11.00;;;2.60;;
22752;SDS011;11543;43.144;24.684;2023-09-08T11:07:38;5.00;;;2.70;;
22752;SDS011;11543;43.144;24.684;2023-09-08T11:10:05;8.02;;;2.83;;
22752;SDS011;11543;43.144;24.684;2023-09-08T11:12:31;6.97;;;2.63;;
22752;SDS011;11543;43.144;24.684;2023-09-08T11:14:57;4.13;;;2.70;;
22752;SDS011;11543;43.144;24.684;2023-09-08T11:17:29;4.80;;;2.45;;
22752;SDS011;11543;43.144;24.684;2023-09-08T11:19:55;5.25;;;2.30;;
22752;SDS011;11543;43.144;24.684;2023-09-08T11:22:23;5.13;;;2.63;;
22752;SDS011;11543;43.144;24.684;2023-09-08T11:24:49;4.35;;;2.70;;
22752;SDS011;11543;43.144;24.684;2023-09-08T11:27:16;6.95;;;3.78;;
22752;SDS011;11543;43.144;24.684;2023-09-08T11:29:43;5.85;;;2.83;;
22752;SDS011;11543;43.144;24.684;2023-09-08T11:32:09;4.22;;;2.78;;
22752;SDS011;11543;43.144;24.684;2023-09-08T11:34:35;5.28;;;2.50;;
22752;SDS011;11543;43.144;24.684;2023-09-08T11:37:11;6.07;;;2.50;;
22752;SDS011;11543;43.144;24.684;2023-09-08T11:39:41;8.10;;;2.80;;
22752;SDS011;11543;43.144;24.684;2023-09-08T11:42:08;5.07;;;2.40;;
22752;SDS011;11543;43.144;24.684;2023-09-08T11:44:34;5.93;;;2.75;;
22752;SDS011;11543;43.144;24.684;2023-09-08T11:47:01;5.65;;;2.72;;
22752;SDS011;11543;43.144;24.684;2023-09-08T11:49:52;4.00;;;2.53;;
22752;SDS011;11543;43.144;24.684;2023-09-08T11:52:17;4.57;;;2.30;;
22752;SDS011;11543;43.144;24.684;2023-09-08T11:54:43;7.28;;;2.60;;
22752;SDS011;11543;43.144;24.684;2023-09-08T11:57:08;4.82;;;2.45;;
22752;SDS011;11543;43.144;24.684;2023-09-08T11:59:37;5.93;;;2.53;;
22752;SDS011;11543;43.144;24.684;2023-09-08T12:02:06;5.00;;;2.47;;
22752;SDS011;11543;43.144;24.684;2023-09-08T12:04:34;4.47;;;2.63;;
22752;SDS011;11543;43.144;24.684;2023-09-08T12:07:00;4.72;;;2.55;;
22752;SDS011;11543;43.144;24.684;2023-09-08T12:09:26;4.72;;;2.80;;
22752;SDS011;11543;43.144;24.684;2023-09-08T12:11:52;7.38;;;2.90;;
22752;SDS011;11543;43.144;24.684;2023-09-08T12:14:17;5.50;;;2.50;;
22752;SDS011;11543;43.144;24.684;2023-09-08T12:16:44;6.13;;;2.40;;
22752;SDS011;11543;43.144;24.684;2023-09-08T12:19:28;5.60;;;2.55;;
22752;SDS011;11543;43.144;24.684;2023-09-08T12:21:56;8.98;;;2.50;;
22752;SDS011;11543;43.144;24.684;2023-09-08T12:27:24;5.65;;;2.35;;
22752;SDS011;11543;43.144;24.684;2023-09-08T12:32:23;6.47;;;2.40;;
22752;SDS011;11543;43.144;24.684;2023-09-08T12:34:50;5.95;;;2.40;;
22752;SDS011;11543;43.144;24.684;2023-09-08T12:37:23;4.75;;;2.50;;
22752;SDS011;11543;43.144;24.684;2023-09-08T12:39:50;6.05;;;2.45;;
22752;SDS011;11543;43.144;24.684;2023-09-08T12:42:17;6.28;;;2.28;;
22752;SDS011;11543;43.144;24.684;2023-09-08T12:44:43;6.22;;;2.58;;
22752;SDS011;11543;43.144;24.684;2023-09-08T12:47:09;8.63;;;2.83;;
22752;SDS011;11543;43.144;24.684;2023-09-08T12:49:37;4.47;;;2.30;;
22752;SDS011;11543;43.144;24.684;2023-09-08T12:52:02;7.07;;;2.65;;
22752;SDS011;11543;43.144;24.684;2023-09-08T12:54:28;10.13;;;2.42;;
22752;SDS011;11543;43.144;24.684;2023-09-08T12:56:54;8.75;;;2.60;;
22752;SDS011;11543;43.144;24.684;2023-09-08T12:59:20;3.97;;;2.70;;
22752;SDS011;11543;43.144;24.684;2023-09-08T13:01:46;7.80;;;2.60;;
22752;SDS011;11543;43.144;24.684;2023-09-08T13:04:12;7.13;;;2.40;;
22752;SDS011;11543;43.144;24.684;2023-09-08T13:06:38;6.57;;;2.65;;
22752;SDS011;11543;43.144;24.684;2023-09-08T13:09:03;10.63;;;2.75;;
22752;SDS011;11543;43.144;24.684;2023-09-08T13:11:29;12.10;;;2.60;;
22752;SDS011;11543;43.144;24.684;2023-09-08T13:13:55;6.22;;;2.70;;
22752;SDS011;11543;43.144;24.684;2023-09-08T13:16:21;9.10;;;2.67;;
22752;SDS011;11543;43.144;24.684;2023-09-08T13:18:46;9.32;;;2.60;;
22752;SDS011;11543;43.144;24.684;2023-09-08T13:21:12;8.48;;;2.88;;
22752;SDS011;11543;43.144;24.684;2023-09-08T13:23:38;5.15;;;2.30;;
22752;SDS011;11543;43.144;24.684;2023-09-08T13:26:03;6.28;;;2.47;;
22752;SDS011;11543;43.144;24.684;2023-09-08T13:28:29;11.02;;;2.38;;
22752;SDS011;11543;43.144;24.684;2023-09-08T13:30:54;6.43;;;2.80;;
22752;SDS011;11543;43.144;24.684;2023-09-08T13:33:19;5.38;;;2.50;;
22752;SDS011;11543;43.144;24.684;2023-09-08T13:35:45;8.43;;;2.67;;
22752;SDS011;11543;43.144;24.684;2023-09-08T13:38:11;7.03;;;2.45;;
22752;SDS011;11543;43.144;24.684;2023-09-08T13:40:36;7.70;;;2.72;;
22752;SDS011;11543;43.144;24.684;2023-09-08T13:43:02;7.10;;;2.88;;
22752;SDS011;11543;43.144;24.684;2023-09-08T13:45:27;6.35;;;2.70;;
22752;SDS011;11543;43.144;24.684;2023-09-08T13:47:53;6.47;;;2.60;;
22752;SDS011;11543;43.144;24.684;2023-09-08T13:50:18;5.45;;;2.40;;
22752;SDS011;11543;43.144;24.684;2023-09-08T13:52:44;6.63;;;2.60;;
22752;SDS011;11543;43.144;24.684;2023-09-08T13:55:09;6.88;;;2.72;;
22752;SDS011;11543;43.144;24.684;2023-09-08T13:57:37;8.20;;;2.70;;
22752;SDS011;11543;43.144;24.684;2023-09-08T14:00:03;7.28;;;2.78;;
22752;SDS011;11543;43.144;24.684;2023-09-08T14:02:29;10.20;;;2.90;;
22752;SDS011;11543;43.144;24.684;2023-09-08T14:04:55;11.50;;;2.80;;
22752;SDS011;11543;43.144;24.684;2023-09-08T14:07:20;7.70;;;3.17;;
22752;SDS011;11543;43.144;24.684;2023-09-08T14:09:46;7.50;;;3.22;;
22752;SDS011;11543;43.144;24.684;2023-09-08T14:12:11;11.15;;;2.80;;
22752;SDS011;11543;43.144;24.684;2023-09-08T14:14:37;9.57;;;2.70;;
22752;SDS011;11543;43.144;24.684;2023-09-08T14:17:02;7.95;;;2.60;;
22752;SDS011;11543;43.144;24.684;2023-09-08T14:19:28;3.78;;;2.88;;
22752;SDS011;11543;43.144;24.684;2023-09-08T14:21:54;8.38;;;2.80;;
22752;SDS011;11543;43.144;24.684;2023-09-08T14:24:20;8.85;;;2.90;;
22752;SDS011;11543;43.144;24.684;2023-09-08T14:26:46;7.03;;;2.58;;
22752;SDS011;11543;43.144;24.684;2023-09-08T14:29:11;6.65;;;2.90;;
22752;SDS011;11543;43.144;24.684;2023-09-08T14:31:37;10.15;;;3.00;;
22752;SDS011;11543;43.144;24.684;2023-09-08T14:34:05;6.28;;;2.70;;
22752;SDS011;11543;43.144;24.684;2023-09-08T14:36:30;9.38;;;2.60;;
22752;SDS011;11543;43.144;24.684;2023-09-08T14:38:56;6.43;;;2.60;;